createdAt,value
2017-09-26T00:02:17.519Z,13.55
2017-09-26T00:04:45.877Z,13.58
2017-09-26T00:07:14.249Z,13.70
2017-09-26T00:09:42.597Z,13.71
2017-09-26T00:12:10.935Z,13.67
2017-09-26T00:14:39.308Z,13.54
2017-09-26T00:17:07.652Z,13.51
2017-09-26T00:19:35.987Z,13.37
2017-09-26T00:22:04.369Z,13.21
2017-09-26T00:24:33.644Z,13.37
2017-09-26T00:27:02.016Z,13.41
2017-09-26T00:29:30.400Z,13.23
2017-09-26T00:31:58.756Z,13.32
2017-09-26T00:34:27.111Z,13.31
2017-09-26T00:36:56.262Z,13.30
2017-09-26T00:39:24.613Z,13.41
2017-09-26T00:41:52.936Z,13.41
2017-09-26T00:44:21.292Z,13.37
2017-09-26T00:46:49.632Z,13.54
2017-09-26T00:49:18.736Z,13.61
2017-09-26T00:51:47.109Z,13.65
2017-09-26T00:54:16.211Z,13.68
2017-09-26T00:56:44.564Z,13.77
2017-09-26T00:59:12.937Z,13.78
2017-09-26T01:01:42.786Z,13.73
2017-09-26T01:04:12.739Z,13.59
2017-09-26T01:06:54.889Z,13.46
2017-09-26T01:09:24.687Z,13.43
2017-09-26T01:11:53.036Z,13.11
2017-09-26T01:14:21.399Z,13.19
2017-09-26T01:16:49.761Z,13.11
2017-09-26T02:29:43.214Z,13.93
2017-09-26T02:32:11.555Z,13.95
2017-09-26T02:34:40.699Z,13.97
2017-09-26T02:37:09.047Z,14.04
2017-09-26T02:39:38.151Z,13.98
2017-09-26T02:42:06.518Z,13.85
2017-09-26T02:44:35.628Z,13.83
2017-09-26T02:47:03.996Z,13.84
2017-09-26T02:49:33.104Z,13.88
2017-09-26T02:52:01.451Z,13.84
2017-09-26T02:54:29.822Z,13.67
2017-09-26T02:56:58.160Z,13.84
2017-09-26T02:59:26.521Z,14.03
2017-09-26T03:01:55.620Z,14.13
2017-09-26T03:04:24.749Z,14.19
2017-09-26T03:06:53.096Z,14.23
2017-09-26T03:09:22.195Z,14.22
2017-09-26T03:11:51.336Z,14.24
2017-09-26T03:14:19.684Z,14.27
2017-09-26T03:16:48.044Z,14.26
2017-09-26T03:19:17.151Z,14.28
2017-09-26T03:21:46.261Z,14.34
2017-09-26T03:24:14.622Z,14.37
2017-09-26T03:26:43.731Z,14.38
2017-09-26T03:29:12.097Z,14.38
2017-09-26T03:31:41.200Z,14.39
2017-09-26T03:34:10.316Z,14.29
2017-09-26T03:36:38.690Z,14.36
2017-09-26T03:39:07.040Z,14.44
2017-09-26T03:41:35.408Z,14.35
2017-09-26T03:44:03.755Z,14.49
2017-09-26T03:46:32.100Z,14.52
2017-09-26T03:49:01.239Z,14.55
2017-09-26T03:51:29.583Z,14.53
2017-09-26T03:53:58.729Z,14.56
2017-09-26T03:56:27.064Z,14.53
2017-09-26T03:58:56.159Z,14.47
2017-09-26T04:01:25.286Z,14.52
2017-09-26T04:03:53.644Z,14.60
2017-09-26T04:06:22.772Z,14.70
2017-09-26T04:08:51.115Z,14.72
2017-09-26T04:11:20.234Z,14.76
2017-09-26T04:13:48.597Z,14.72
2017-09-26T04:16:17.700Z,14.78
2017-09-26T04:18:46.073Z,14.67
2017-09-26T04:21:15.172Z,14.67
2017-09-26T04:23:44.275Z,14.67
2017-09-26T04:26:12.632Z,14.68
2017-09-26T04:28:40.978Z,14.62
2017-09-26T04:31:09.340Z,14.63
2017-09-26T04:33:37.679Z,14.62
2017-09-26T04:36:06.779Z,14.54
2017-09-26T04:38:35.910Z,14.53
2017-09-26T04:41:04.285Z,14.49
2017-09-26T04:43:32.643Z,14.49
2017-09-26T04:46:01.764Z,14.58
2017-09-26T04:48:30.106Z,14.54
2017-09-26T04:50:59.256Z,14.51
2017-09-26T04:53:27.611Z,14.44
2017-09-26T04:55:56.752Z,14.33
2017-09-26T04:58:25.137Z,14.35
2017-09-26T05:00:53.477Z,14.41
2017-09-26T05:03:21.835Z,14.35
2017-09-26T05:05:50.935Z,14.38
2017-09-26T05:08:20.080Z,14.41
2017-09-26T05:10:48.429Z,14.48
2017-09-26T05:13:16.777Z,14.45
2017-09-26T05:15:45.156Z,14.45
2017-09-26T05:18:13.501Z,14.40
2017-09-26T05:20:41.869Z,14.37
2017-09-26T05:23:10.201Z,14.40
2017-09-26T05:25:38.536Z,14.43
2017-09-26T05:28:06.903Z,14.30
2017-09-26T05:30:35.256Z,14.06
2017-09-26T05:33:04.388Z,14.20
2017-09-26T05:35:32.724Z,14.15
2017-09-26T05:38:01.070Z,14.30
2017-09-26T05:40:29.451Z,14.41
2017-09-26T05:42:57.814Z,14.42
2017-09-26T05:45:26.175Z,14.36
2017-09-26T05:47:54.580Z,14.48
2017-09-26T05:50:22.923Z,14.47
2017-09-26T05:52:52.058Z,14.43
2017-09-26T05:55:20.397Z,14.53
2017-09-26T05:57:49.546Z,14.62
2017-09-26T06:00:17.891Z,14.67
2017-09-26T06:02:46.241Z,14.71
2017-09-26T06:05:14.612Z,14.76
2017-09-26T06:07:42.954Z,14.85
2017-09-26T06:10:11.315Z,14.86
2017-09-26T06:12:39.655Z,14.85
2017-09-26T06:15:08.000Z,14.91
2017-09-26T06:17:36.367Z,14.92
2017-09-26T06:20:04.704Z,14.97
2017-09-26T06:22:33.138Z,15.06
2017-09-26T06:25:01.491Z,15.07
2017-09-26T06:27:30.601Z,15.02
2017-09-26T06:29:58.973Z,15.06
2017-09-26T06:32:27.316Z,15.01
2017-09-26T06:34:55.660Z,15.00
2017-09-26T06:37:24.041Z,15.02
2017-09-26T06:39:52.391Z,14.88
2017-09-26T06:42:21.540Z,14.92
2017-09-26T06:44:50.761Z,14.97
2017-09-26T06:47:19.098Z,14.97
2017-09-26T06:49:47.464Z,14.98
2017-09-26T06:52:15.818Z,14.91
2017-09-26T06:54:45.032Z,14.93
2017-09-26T06:57:14.137Z,15.00
2017-09-26T06:59:42.487Z,15.03
2017-09-26T07:02:10.865Z,14.95
2017-09-26T07:04:39.207Z,15.01
2017-09-26T07:07:07.572Z,15.00
2017-09-26T07:09:35.904Z,15.03
2017-09-26T07:12:04.245Z,15.10
2017-09-26T07:14:32.608Z,14.93
2017-09-26T07:17:00.939Z,14.94
2017-09-26T07:19:29.310Z,14.98
2017-09-26T07:21:57.639Z,15.13
2017-09-26T07:24:25.984Z,15.22
2017-09-26T07:26:54.350Z,15.33
2017-09-26T07:29:22.928Z,15.39
2017-09-26T07:31:51.305Z,15.46
2017-09-26T07:34:19.643Z,15.52
2017-09-26T07:36:47.985Z,15.58
2017-09-26T07:39:16.347Z,15.63
2017-09-26T07:41:44.693Z,15.67
2017-09-26T07:44:13.059Z,15.72
2017-09-26T07:46:42.168Z,15.72
2017-09-26T07:49:10.504Z,15.80
2017-09-26T07:51:38.877Z,15.68
2017-09-26T07:54:07.220Z,15.48
2017-09-26T07:56:35.584Z,15.47
2017-09-26T07:59:03.927Z,15.57
2017-09-26T08:01:32.271Z,15.57
2017-09-26T08:04:01.032Z,15.68
2017-09-26T08:06:29.771Z,15.76
2017-09-26T08:08:58.683Z,15.84
2017-09-26T08:11:27.032Z,15.86
2017-09-26T08:13:55.381Z,15.68
2017-09-26T08:16:23.741Z,15.50
2017-09-26T08:18:52.844Z,15.39
2017-09-26T08:21:21.976Z,15.61
2017-09-26T08:23:50.307Z,15.76
2017-09-26T08:26:19.416Z,15.90
2017-09-26T08:28:48.535Z,16.10
2017-09-26T08:31:16.872Z,16.25
2017-09-26T08:33:45.236Z,16.39
2017-09-26T08:36:13.572Z,16.41
2017-09-26T08:38:41.908Z,16.54
2017-09-26T08:41:10.265Z,16.70
2017-09-26T08:43:38.612Z,16.70
2017-09-26T08:46:06.985Z,16.73
2017-09-26T08:48:36.096Z,16.73
2017-09-26T08:51:04.438Z,16.88
2017-09-26T08:53:32.795Z,16.88
2017-09-26T08:56:01.165Z,17.00
2017-09-26T08:58:29.517Z,17.17
2017-09-26T09:00:57.857Z,17.38
2017-09-26T09:03:26.205Z,17.18
2017-09-26T09:05:54.576Z,17.44
2017-09-26T09:08:22.909Z,17.57
2017-09-26T09:10:52.045Z,17.71
2017-09-26T09:13:20.384Z,17.71
2017-09-26T09:15:48.719Z,17.70
2017-09-26T09:18:17.099Z,17.89
2017-09-26T09:20:45.445Z,17.97
2017-09-26T09:23:14.575Z,18.05
2017-09-26T09:25:42.927Z,18.13
2017-09-26T09:28:11.320Z,17.88
2017-09-26T09:30:39.685Z,17.78
2017-09-26T09:33:08.792Z,17.95
2017-09-26T09:35:37.132Z,18.10
2017-09-26T09:38:05.497Z,17.42
2017-09-26T09:40:33.832Z,17.40
2017-09-26T09:43:02.192Z,17.30
2017-09-26T09:45:31.293Z,17.69
2017-09-26T09:48:00.403Z,17.33
2017-09-26T09:50:28.768Z,17.58
2017-09-26T09:52:57.876Z,17.85
2017-09-26T09:55:27.011Z,17.77
2017-09-26T09:57:56.137Z,17.94
2017-09-26T10:00:24.492Z,18.17
2017-09-26T10:02:52.858Z,18.25
2017-09-26T10:05:21.191Z,18.39
2017-09-26T10:07:49.557Z,18.57
2017-09-26T10:10:17.906Z,18.80
2017-09-26T10:12:46.289Z,18.99
2017-09-26T10:15:14.623Z,19.02
2017-09-26T10:17:43.737Z,18.54
2017-09-26T10:20:12.864Z,18.82
2017-09-26T10:22:41.211Z,18.82
2017-09-26T10:25:10.339Z,18.95
2017-09-26T10:27:38.672Z,19.02
2017-09-26T10:30:07.022Z,19.06
2017-09-26T10:32:35.384Z,17.96
2017-09-26T10:35:03.730Z,18.45
2017-09-26T10:37:32.867Z,18.80
2017-09-26T10:40:01.202Z,19.15
2017-09-26T10:42:30.304Z,19.46
2017-09-26T10:44:59.437Z,18.61
2017-09-26T10:47:27.792Z,18.70
2017-09-26T10:49:56.131Z,18.93
2017-09-26T10:52:24.475Z,19.32
2017-09-26T10:54:52.844Z,19.00
2017-09-26T10:57:21.173Z,18.93
2017-09-26T10:59:49.534Z,18.66
2017-09-26T11:02:17.872Z,18.58
2017-09-26T11:04:46.205Z,19.13
2017-09-26T11:07:14.582Z,19.38
2017-09-26T11:09:42.933Z,19.93
2017-09-26T11:12:11.294Z,20.15
2017-09-26T11:14:40.762Z,20.06
2017-09-26T11:17:09.103Z,20.09
2017-09-26T11:19:37.473Z,20.17
2017-09-26T11:22:05.804Z,20.62
2017-09-26T11:24:34.160Z,21.12
2017-09-26T11:27:02.498Z,21.33
2017-09-26T11:29:31.599Z,20.94
2017-09-26T11:32:00.721Z,21.52
2017-09-26T11:34:29.058Z,21.38
2017-09-26T11:36:58.193Z,20.18
2017-09-26T11:39:26.532Z,20.68
2017-09-26T11:41:55.640Z,21.74
2017-09-26T11:44:24.769Z,22.13
2017-09-26T11:46:53.138Z,22.15
2017-09-26T11:49:21.466Z,22.12
2017-09-26T11:51:49.826Z,21.93
2017-09-26T11:54:18.157Z,22.17
2017-09-26T11:56:47.278Z,22.30
2017-09-26T11:59:15.662Z,22.43
2017-09-26T12:01:43.991Z,22.01
2017-09-26T12:04:12.348Z,22.52
2017-09-26T12:06:40.681Z,22.92
2017-09-26T12:09:11.025Z,23.44
2017-09-26T12:11:39.384Z,23.94
2017-09-26T12:14:08.480Z,24.10
2017-09-26T12:16:37.608Z,24.34
2017-09-26T12:19:05.944Z,24.20
2017-09-26T12:21:34.302Z,24.13
2017-09-26T12:24:02.638Z,24.40
2017-09-26T12:26:30.995Z,24.20
2017-09-26T12:29:00.093Z,22.84
2017-09-26T12:31:29.197Z,22.16
2017-09-26T12:33:58.328Z,22.54
2017-09-26T12:36:26.664Z,22.05
2017-09-26T12:38:55.002Z,22.59
2017-09-26T12:41:23.357Z,22.65
2017-09-26T12:43:51.709Z,22.41
2017-09-26T12:46:20.070Z,22.72
2017-09-26T12:48:48.415Z,22.94
2017-09-26T12:51:16.764Z,23.13
2017-09-26T12:53:45.903Z,22.93
2017-09-26T12:56:14.244Z,22.89
2017-09-26T12:58:43.384Z,22.58
2017-09-26T13:01:11.729Z,22.83
2017-09-26T13:03:40.065Z,22.72
2017-09-26T13:06:08.424Z,23.10
2017-09-26T13:08:36.756Z,23.07
2017-09-26T13:11:05.851Z,23.13
2017-09-26T13:13:34.977Z,23.11
2017-09-26T13:16:03.312Z,22.67
2017-09-26T13:18:31.645Z,23.43
2017-09-26T13:21:00.004Z,23.64
2017-09-26T13:23:28.336Z,23.88
2017-09-26T13:25:56.706Z,24.56
2017-09-26T13:28:25.804Z,24.57
2017-09-26T13:30:54.140Z,24.12
2017-09-26T13:33:22.508Z,23.71
2017-09-26T13:35:51.615Z,23.74
2017-09-26T13:38:20.719Z,23.69
2017-09-26T13:40:49.847Z,24.02
2017-09-26T13:43:18.179Z,25.39
2017-09-26T13:45:47.314Z,26.03
2017-09-26T13:48:15.644Z,26.96
2017-09-26T13:50:43.988Z,28.22
2017-09-26T13:53:12.345Z,27.36
2017-09-26T13:55:41.446Z,28.04
2017-09-26T13:58:09.814Z,29.30
2017-09-26T14:00:38.920Z,30.23
2017-09-26T14:03:07.248Z,31.77
2017-09-26T14:05:35.607Z,31.26
2017-09-26T14:08:03.940Z,31.36
2017-09-26T14:10:33.036Z,30.76
2017-09-26T14:13:02.169Z,29.95
2017-09-26T14:15:30.505Z,28.56
2017-09-26T14:17:58.839Z,27.81
2017-09-26T14:20:27.208Z,26.95
2017-09-26T14:22:55.575Z,26.83
2017-09-26T14:25:23.907Z,27.01
2017-09-26T14:27:52.269Z,26.99
2017-09-26T14:30:20.612Z,27.15
2017-09-26T14:32:48.943Z,27.23
2017-09-26T14:35:17.299Z,27.00
2017-09-26T14:37:45.625Z,26.41
2017-09-26T14:40:13.960Z,25.22
2017-09-26T14:42:42.323Z,25.07
2017-09-26T14:45:10.684Z,24.66
2017-09-26T14:47:39.768Z,24.43
2017-09-26T14:50:08.911Z,23.83
2017-09-26T14:52:37.239Z,23.45
2017-09-26T14:55:06.360Z,23.10
2017-09-26T14:57:35.491Z,22.77
2017-09-26T15:00:03.828Z,22.51
2017-09-26T15:02:32.925Z,22.03
2017-09-26T15:05:02.067Z,21.79
2017-09-26T15:07:30.406Z,21.58
2017-09-26T15:09:59.511Z,21.40
2017-09-26T15:12:28.648Z,21.18
2017-09-26T15:14:56.981Z,20.92
2017-09-26T15:17:26.086Z,20.72
2017-09-26T15:19:55.240Z,20.51
2017-09-26T15:22:23.581Z,20.25
2017-09-26T15:24:51.927Z,20.04
2017-09-26T15:27:20.295Z,19.89
2017-09-26T15:29:48.644Z,19.69
2017-09-26T15:32:17.001Z,19.44
2017-09-26T15:34:45.376Z,19.19
2017-09-26T15:37:13.707Z,18.69
2017-09-26T15:39:42.045Z,18.70
2017-09-26T15:42:10.418Z,18.64
2017-09-26T15:44:38.761Z,18.54
2017-09-26T15:47:07.115Z,18.55
2017-09-26T15:49:35.489Z,18.52
2017-09-26T15:52:03.835Z,18.56
2017-09-26T15:54:32.944Z,18.54
2017-09-26T15:57:01.326Z,18.49
2017-09-26T15:59:29.662Z,18.54
2017-09-26T16:01:58.004Z,18.43
2017-09-26T16:04:26.377Z,18.31
2017-09-26T16:06:54.719Z,18.21
2017-09-26T16:09:23.849Z,18.15
2017-09-26T16:11:52.204Z,17.97
2017-09-26T16:14:21.309Z,17.97
2017-09-26T16:16:50.439Z,17.96
2017-09-26T16:19:18.783Z,18.08
2017-09-26T16:21:47.939Z,18.09
2017-09-26T16:24:16.328Z,18.09
2017-09-26T16:26:44.671Z,18.03
2017-09-26T16:29:13.011Z,17.96
2017-09-26T16:31:42.137Z,17.92
2017-09-26T16:34:10.482Z,17.88
2017-09-26T16:36:38.825Z,17.75
2017-09-26T16:39:07.193Z,17.70
2017-09-26T16:41:35.533Z,17.69
2017-09-26T16:44:04.643Z,17.63
2017-09-26T16:46:33.775Z,17.58
2017-09-26T16:49:02.115Z,17.43
2017-09-26T16:51:31.221Z,17.37
2017-09-26T16:54:00.355Z,17.34
2017-09-26T16:56:28.693Z,17.31
2017-09-26T16:58:57.794Z,17.24
2017-09-26T17:01:28.165Z,17.18
2017-09-26T17:03:56.508Z,17.08
2017-09-26T17:06:25.611Z,17.01
2017-09-26T17:08:53.968Z,16.95
2017-09-26T17:11:22.296Z,16.94
2017-09-26T17:13:50.644Z,16.89
2017-09-26T17:16:19.742Z,16.81
2017-09-26T17:18:48.872Z,16.69
2017-09-26T17:21:17.213Z,16.65
2017-09-26T17:23:46.307Z,16.60
2017-09-26T17:26:15.444Z,16.54
2017-09-26T17:28:43.767Z,16.44
2017-09-26T17:31:12.099Z,16.30
2017-09-26T17:33:40.474Z,16.18
2017-09-26T17:36:08.817Z,16.12
2017-09-26T17:38:37.167Z,16.11
2017-09-26T17:41:05.599Z,16.09
2017-09-26T17:43:34.704Z,16.00
2017-09-26T17:46:03.807Z,16.03
2017-09-26T17:48:32.180Z,16.03
2017-09-26T17:51:00.525Z,16.05
2017-09-26T17:53:29.512Z,16.10
2017-09-26T17:55:57.871Z,16.13
2017-09-26T17:58:26.236Z,16.12
2017-09-26T18:00:54.580Z,16.17
2017-09-26T18:03:23.696Z,16.22
2017-09-26T18:05:52.048Z,16.17
2017-09-26T18:08:20.384Z,16.20
2017-09-26T18:10:48.726Z,16.00
2017-09-26T18:13:17.867Z,15.82
2017-09-26T18:15:46.208Z,15.62
2017-09-26T18:18:15.340Z,15.32
2017-09-26T18:20:43.719Z,15.36
2017-09-26T18:23:12.060Z,15.28
2017-09-26T18:25:41.199Z,15.15
2017-09-26T18:28:09.537Z,15.28
2017-09-26T18:30:38.664Z,15.41
2017-09-26T18:33:06.999Z,15.37
2017-09-26T18:35:35.340Z,15.41
2017-09-26T18:38:03.704Z,15.37
2017-09-26T18:40:32.036Z,15.38
2017-09-26T18:43:00.398Z,15.37
2017-09-26T18:45:28.736Z,15.42
2017-09-26T18:47:57.093Z,15.40
2017-09-26T18:50:26.205Z,15.40
2017-09-26T18:52:55.305Z,15.37
2017-09-26T18:55:23.667Z,15.41
2017-09-26T18:57:52.785Z,15.45
2017-09-26T19:00:21.149Z,15.47
2017-09-26T19:02:50.252Z,15.47
2017-09-26T19:05:19.389Z,15.38
2017-09-26T19:07:47.721Z,15.34
2017-09-26T19:10:16.840Z,15.31
2017-09-26T19:12:45.200Z,15.26
2017-09-26T19:15:14.307Z,15.20
2017-09-26T19:17:43.466Z,15.15
2017-09-26T19:20:11.828Z,15.10
2017-09-26T19:22:40.195Z,15.06
2017-09-26T19:25:08.540Z,15.07
2017-09-26T19:27:37.675Z,15.04
2017-09-26T19:30:06.040Z,14.98
2017-09-26T19:32:34.375Z,14.93
2017-09-26T19:35:02.740Z,14.89
2017-09-26T19:37:31.093Z,14.84
2017-09-26T19:39:59.468Z,14.72
2017-09-26T19:42:27.807Z,14.69
2017-09-26T19:44:56.180Z,14.66
2017-09-26T19:47:24.528Z,14.62
2017-09-26T19:49:52.893Z,14.61
2017-09-26T19:52:21.240Z,14.53
2017-09-26T19:54:50.384Z,14.52
2017-09-26T19:57:18.719Z,14.54
2017-09-26T19:59:47.842Z,14.52
2017-09-26T20:02:16.205Z,14.29
2017-09-26T20:04:45.316Z,14.11
2017-09-26T20:07:14.453Z,14.04
2017-09-26T20:09:42.792Z,14.04
2017-09-26T20:12:11.891Z,13.99
2017-09-26T20:14:41.018Z,14.01
2017-09-26T20:17:09.362Z,14.04
2017-09-26T20:19:38.570Z,14.03
2017-09-26T20:22:07.680Z,14.01
2017-09-26T20:24:36.020Z,13.85
2017-09-26T20:27:04.379Z,13.92
2017-09-26T20:29:32.721Z,13.91
2017-09-26T20:32:01.090Z,13.82
2017-09-26T20:34:29.463Z,13.81
2017-09-26T20:36:58.588Z,13.70
2017-09-26T20:39:26.930Z,13.51
2017-09-26T20:41:56.077Z,13.31
2017-09-26T20:44:24.439Z,13.48
2017-09-26T20:46:52.778Z,13.59
2017-09-26T20:49:21.148Z,13.70
2017-09-26T20:51:49.484Z,13.81
2017-09-26T20:54:17.827Z,13.80
2017-09-26T20:56:46.979Z,13.42
2017-09-26T20:59:15.318Z,13.46
2017-09-26T21:01:44.457Z,13.60
2017-09-26T21:04:12.805Z,13.66
2017-09-26T21:06:41.914Z,13.63
2017-09-26T21:09:10.281Z,13.72
2017-09-26T21:11:40.413Z,13.76
2017-09-26T21:14:08.783Z,13.76
2017-09-26T21:16:37.887Z,13.56
2017-09-26T21:19:06.378Z,13.55
2017-09-26T21:21:34.752Z,13.59
2017-09-26T21:24:03.095Z,13.63
2017-09-26T21:26:31.472Z,13.67
2017-09-26T21:28:59.826Z,13.60
2017-09-26T21:31:28.177Z,13.60
2017-09-26T21:33:56.585Z,13.52
2017-09-26T21:36:24.926Z,13.24
2017-09-26T21:38:54.072Z,13.00
2017-09-26T21:41:22.424Z,13.14
2017-09-26T21:43:50.766Z,13.17
2017-09-26T21:46:19.134Z,12.72
2017-09-26T21:48:47.478Z,12.77
2017-09-26T21:51:15.848Z,12.64
2017-09-26T21:53:44.192Z,12.67
2017-09-26T21:56:13.314Z,12.64
2017-09-26T21:58:41.688Z,12.60
2017-09-26T22:01:10.847Z,12.70
2017-09-26T22:03:39.775Z,12.75
2017-09-26T22:06:08.886Z,12.67
2017-09-26T22:08:37.233Z,12.72
2017-09-26T22:11:05.605Z,12.69
2017-09-26T22:13:33.951Z,12.55
2017-09-26T22:16:02.329Z,12.55
2017-09-26T22:18:30.692Z,12.41
2017-09-26T22:20:59.029Z,12.53
2017-09-26T22:23:27.396Z,12.48
2017-09-26T22:25:55.734Z,12.51
2017-09-26T22:28:24.104Z,12.41
2017-09-26T22:30:53.208Z,12.40
2017-09-26T22:33:21.558Z,12.29
2017-09-26T22:35:50.701Z,12.38
2017-09-26T22:38:19.048Z,12.19
2017-09-26T22:40:48.188Z,12.25
2017-09-26T22:43:16.531Z,12.19
2017-09-26T22:45:45.644Z,12.28
2017-09-26T22:48:14.017Z,12.37
2017-09-26T22:50:42.368Z,12.20
2017-09-26T22:53:10.738Z,12.01
2017-09-26T22:55:40.613Z,12.13
2017-09-26T22:58:08.949Z,12.15
2017-09-26T23:00:37.321Z,11.91
2017-09-26T23:03:05.673Z,12.06
2017-09-26T23:05:34.060Z,12.19
2017-09-26T23:08:02.397Z,12.27
2017-09-26T23:10:31.645Z,12.01
2017-09-26T23:13:00.029Z,12.09
2017-09-26T23:15:28.374Z,12.25
2017-09-26T23:17:56.747Z,12.34
2017-09-26T23:20:25.091Z,12.40
2017-09-26T23:22:53.436Z,12.44
2017-09-26T23:25:21.810Z,12.55
2017-09-26T23:27:50.154Z,12.64
2017-09-26T23:30:19.293Z,12.69
2017-09-26T23:32:47.652Z,12.73
2017-09-26T23:35:15.991Z,12.80
2017-09-26T23:37:44.364Z,12.80
2017-09-26T23:40:12.792Z,12.76
2017-09-26T23:42:41.165Z,12.65
2017-09-26T23:45:10.277Z,12.54
2017-09-26T23:47:38.616Z,12.50
2017-09-26T23:50:06.986Z,12.49
2017-09-26T23:52:35.331Z,12.43
2017-09-26T23:55:03.705Z,12.42
2017-09-26T23:57:32.048Z,12.60
